Time;durP1;ratioP1;P1;durP2;ratioP2;P2;SDS_P1;SDS_P2;PMS_P1;PMS_P2;Temp;Humidity;BMP_temperature;BMP_pressure;BME280_temperature;BME280_humidity;BME280_pressure;Samples;Min_cycle;Max_cycle;Signal;HPM_P1;HPM_P2
2023/09/08 00:00:57;;;;;;;9.45;6.82;;;22.00;99.90;;;;;;5071093;28;20530;-58
2023/09/08 00:03:22;;;;;;;8.38;6.63;;;21.90;99.90;;;;;;5070768;28;20052;-60
2023/09/08 00:05:48;;;;;;;7.97;6.60;;;21.90;99.90;;;;;;5070436;28;20024;-60
2023/09/08 00:08:14;;;;;;;8.68;6.63;;;21.90;99.90;;;;;;5068847;28;20643;-59
2023/09/08 00:10:39;;;;;;;8.25;6.85;;;21.80;99.90;;;;;;5070878;28;20047;-59
2023/09/08 00:13:05;;;;;;;9.18;6.70;;;21.80;99.90;;;;;;5071059;28;20476;-60
2023/09/08 00:15:34;;;;;;;9.43;6.93;;;21.70;99.90;;;;;;5071107;28;20036;-59
2023/09/08 00:18:00;;;;;;;9.57;7.40;;;21.70;99.90;;;;;;5070885;28;20043;-61
2023/09/08 00:20:26;;;;;;;8.95;6.32;;;21.60;99.90;;;;;;5070580;28;20556;-61
2023/09/08 00:22:51;;;;;;;9.75;6.43;;;21.60;99.90;;;;;;5070851;28;20491;-61
2023/09/08 00:25:17;;;;;;;10.20;7.05;;;21.60;99.90;;;;;;5070916;28;20048;-59
2023/09/08 00:27:43;;;;;;;8.63;6.40;;;21.60;99.90;;;;;;5070449;28;20488;-60
2023/09/08 00:30:09;;;;;;;9.63;7.20;;;21.50;99.90;;;;;;5070949;28;20028;-62
2023/09/08 00:32:35;;;;;;;10.73;7.00;;;21.50;99.90;;;;;;5070632;28;20379;-61
2023/09/08 00:35:00;;;;;;;11.25;7.22;;;21.40;99.90;;;;;;5070715;28;20037;-58
2023/09/08 00:37:26;;;;;;;8.23;6.60;;;21.30;99.90;;;;;;5069777;28;20039;-61
2023/09/08 00:39:52;;;;;;;9.02;7.03;;;21.30;99.90;;;;;;5069270;28;20052;-58
2023/09/08 00:42:17;;;;;;;9.18;7.35;;;21.30;99.90;;;;;;5070670;28;20459;-58
2023/09/08 00:44:43;;;;;;;9.77;7.10;;;21.20;99.90;;;;;;5070120;28;20033;-59
2023/09/08 00:47:09;;;;;;;9.27;7.30;;;21.20;99.90;;;;;;5070596;28;20060;-59
2023/09/08 00:49:34;;;;;;;7.95;7.15;;;21.10;99.90;;;;;;5070341;28;20041;-60
2023/09/08 00:52:00;;;;;;;10.15;7.32;;;21.10;99.90;;;;;;5070581;28;20037;-60
2023/09/08 00:54:26;;;;;;;9.15;7.80;;;21.10;99.90;;;;;;5070644;28;20093;-58
2023/09/08 00:57:01;;;;;;;9.10;7.88;;;21.00;99.90;;;;;;5069117;28;20123;-59
2023/09/08 00:59:27;;;;;;;9.38;7.32;;;21.00;99.90;;;;;;5070614;28;20468;-62
2023/09/08 01:01:53;;;;;;;9.23;7.53;;;21.00;99.90;;;;;;5070467;28;20045;-60
2023/09/08 01:04:20;;;;;;;9.25;7.30;;;20.90;99.90;;;;;;5070693;28;20110;-59
2023/09/08 01:06:46;;;;;;;9.35;7.97;;;20.80;99.90;;;;;;5070777;28;20036;-59
2023/09/08 01:09:13;;;;;;;9.98;8.20;;;20.80;99.90;;;;;;5070405;28;20041;-58
2023/09/08 01:11:39;;;;;;;11.68;7.95;;;20.70;99.90;;;;;;5068920;28;20055;-58
2023/09/08 01:14:05;;;;;;;11.23;8.35;;;20.70;99.90;;;;;;5070426;28;20368;-60
2023/09/08 01:16:30;;;;;;;10.35;8.27;;;20.70;99.90;;;;;;5070314;28;20041;-57
2023/09/08 01:18:58;;;;;;;9.75;7.68;;;20.70;99.90;;;;;;5071445;28;20529;-60
2023/09/08 01:22:25;;;;;;;11.52;8.32;;;20.60;99.90;;;;;;5072926;28;20071;-59
2023/09/08 01:25:17;;;;;;;10.60;8.20;;;20.60;99.90;;;;;;5025893;28;20128;-59
2023/09/08 01:27:49;;;;;;;10.73;8.73;;;20.50;99.90;;;;;;5031981;28;20048;-60
2023/09/08 01:30:16;;;;;;;10.02;8.57;;;20.40;99.90;;;;;;5064917;28;20595;-60
2023/09/08 01:32:44;;;;;;;10.68;8.52;;;20.40;99.90;;;;;;5073849;28;20040;-58
2023/09/08 01:35:10;;;;;;;9.48;8.50;;;20.40;99.90;;;;;;5072668;28;20040;-60
2023/09/08 01:37:38;;;;;;;11.35;8.90;;;20.40;99.90;;;;;;5073958;28;20062;-60
2023/09/08 01:40:05;;;;;;;10.75;9.20;;;20.40;99.90;;;;;;5073554;28;20070;-61
2023/09/08 01:42:31;;;;;;;9.75;8.75;;;20.40;99.90;;;;;;5073321;28;20040;-60
2023/09/08 01:44:56;;;;;;;11.82;8.50;;;20.30;99.90;;;;;;5073260;28;20040;-61
2023/09/08 01:47:22;;;;;;;10.98;8.65;;;20.30;99.90;;;;;;5073699;28;20603;-58
2023/09/08 01:49:47;;;;;;;10.70;8.57;;;20.30;99.90;;;;;;5073249;28;20058;-59
2023/09/08 01:52:13;;;;;;;11.57;9.05;;;20.30;99.90;;;;;;5073709;28;20094;-60
2023/09/08 01:54:39;;;;;;;10.88;8.98;;;20.10;99.90;;;;;;5073422;28;20135;-59
2023/09/08 01:57:04;;;;;;;11.60;8.63;;;20.20;99.90;;;;;;5073802;28;20032;-60
2023/09/08 01:59:30;;;;;;;9.75;8.75;;;20.10;99.90;;;;;;5073089;28;20075;-60
2023/09/08 02:01:56;;;;;;;11.77;9.63;;;20.10;99.90;;;;;;5072140;28;20032;-59
2023/09/08 02:04:21;;;;;;;13.82;10.32;;;20.10;99.90;;;;;;5073427;28;20040;-60
2023/09/08 02:06:47;;;;;;;11.10;9.35;;;20.10;99.90;;;;;;5070882;28;20033;-60
2023/09/08 02:09:14;;;;;;;11.88;9.52;;;20.00;99.90;;;;;;5071806;28;20174;-59
2023/09/08 02:11:41;;;;;;;10.07;8.98;;;19.90;99.90;;;;;;5072872;28;20028;-59
2023/09/08 02:14:08;;;;;;;10.50;9.40;;;19.90;99.90;;;;;;5073436;28;20085;-58
2023/09/08 02:16:34;;;;;;;12.32;9.27;;;19.90;99.90;;;;;;5073169;28;20052;-60
2023/09/08 02:19:00;;;;;;;12.00;9.27;;;19.80;99.90;;;;;;5071682;28;20113;-58
2023/09/08 02:21:25;;;;;;;12.15;9.02;;;19.80;99.90;;;;;;5070448;28;20415;-59
2023/09/08 02:23:51;;;;;;;11.75;9.50;;;19.80;99.90;;;;;;5073158;28;20108;-58
2023/09/08 02:26:17;;;;;;;10.38;8.45;;;19.80;99.90;;;;;;5071472;28;20040;-59
2023/09/08 02:28:42;;;;;;;10.35;8.73;;;19.70;99.90;;;;;;5072905;28;20071;-58
2023/09/08 02:31:09;;;;;;;10.23;9.13;;;19.70;99.90;;;;;;5071472;28;20032;-58
2023/09/08 02:33:34;;;;;;;12.90;9.85;;;19.70;99.90;;;;;;5071322;28;20070;-61
2023/09/08 02:36:07;;;;;;;11.07;8.75;;;19.70;99.90;;;;;;5071862;28;20032;-61
2023/09/08 02:38:33;;;;;;;11.20;9.07;;;19.60;99.90;;;;;;5073067;28;20417;-60
2023/09/08 02:40:59;;;;;;;11.07;8.90;;;19.60;99.90;;;;;;5072097;28;20136;-60
2023/09/08 02:43:24;;;;;;;10.43;9.30;;;19.60;99.90;;;;;;5072428;28;20479;-61
2023/09/08 02:45:50;;;;;;;11.82;9.35;;;19.60;99.90;;;;;;5072384;28;20036;-59
2023/09/08 02:48:16;;;;;;;11.52;9.13;;;19.60;99.90;;;;;;5071266;28;20051;-60
2023/09/08 02:50:43;;;;;;;10.55;8.32;;;19.60;99.90;;;;;;5071315;28;20055;-61
2023/09/08 02:53:09;;;;;;;12.02;9.13;;;19.50;99.90;;;;;;5069403;28;20036;-58
2023/09/08 02:55:35;;;;;;;10.20;8.48;;;19.50;99.90;;;;;;5071901;28;20043;-60
2023/09/08 02:58:00;;;;;;;11.57;9.20;;;19.50;99.90;;;;;;5072300;28;20029;-61
2023/09/08 03:00:27;;;;;;;11.82;9.48;;;19.50;99.90;;;;;;5072785;28;20036;-61
2023/09/08 03:02:52;;;;;;;12.25;9.25;;;19.50;99.90;;;;;;5072317;28;20037;-60
2023/09/08 03:05:18;;;;;;;10.98;9.27;;;19.40;99.90;;;;;;5072208;28;20115;-60
2023/09/08 03:07:47;;;;;;;13.10;10.00;;;19.40;99.90;;;;;;5071546;28;20036;-60
2023/09/08 03:10:12;;;;;;;13.45;9.75;;;19.40;99.90;;;;;;5071796;28;20076;-60
2023/09/08 03:12:38;;;;;;;10.52;9.18;;;19.30;99.90;;;;;;5071181;28;20079;-59
2023/09/08 03:15:04;;;;;;;12.15;10.95;;;19.30;99.90;;;;;;5070667;28;20068;-60
2023/09/08 03:17:30;;;;;;;10.82;9.73;;;19.20;99.90;;;;;;5072178;28;20036;-60
2023/09/08 03:19:56;;;;;;;12.88;9.52;;;19.20;99.90;;;;;;5071646;28;20055;-60
2023/09/08 03:22:21;;;;;;;13.02;10.55;;;19.20;99.90;;;;;;5071320;28;20498;-60
2023/09/08 03:24:47;;;;;;;12.25;10.18;;;19.20;99.90;;;;;;5071922;28;20076;-59
2023/09/08 03:27:13;;;;;;;11.88;9.63;;;19.20;99.90;;;;;;5071488;28;20040;-59
2023/09/08 03:29:38;;;;;;;15.45;10.27;;;19.10;99.90;;;;;;5070419;28;20045;-59
2023/09/08 03:32:05;;;;;;;14.57;9.93;;;19.10;99.90;;;;;;5071320;28;20047;-60
2023/09/08 03:34:31;;;;;;;10.68;9.45;;;19.00;99.90;;;;;;5071327;28;20040;-59
2023/09/08 03:36:56;;;;;;;11.63;10.30;;;19.00;99.90;;;;;;5068401;28;20174;-60
2023/09/08 03:39:22;;;;;;;14.43;10.07;;;19.00;99.90;;;;;;5071398;28;20055;-61
2023/09/08 03:41:48;;;;;;;13.05;10.90;;;18.90;99.90;;;;;;5067848;28;20036;-59
2023/09/08 03:44:13;;;;;;;12.32;10.48;;;18.80;99.90;;;;;;5070307;28;20126;-62
2023/09/08 03:46:39;;;;;;;11.95;10.18;;;18.90;99.90;;;;;;5071030;28;20044;-59
2023/09/08 03:49:05;;;;;;;12.52;10.43;;;18.80;99.90;;;;;;5070444;28;20430;-59
2023/09/08 03:51:30;;;;;;;11.70;10.32;;;18.80;99.90;;;;;;5071076;28;20068;-58
2023/09/08 03:53:56;;;;;;;13.00;10.70;;;18.70;99.90;;;;;;5071266;28;20045;-59
2023/09/08 03:56:22;;;;;;;14.73;11.02;;;18.70;99.90;;;;;;5071219;28;20528;-59
2023/09/08 03:58:48;;;;;;;12.40;10.73;;;18.70;99.90;;;;;;5071472;28;20123;-60
2023/09/08 04:01:14;;;;;;;11.90;10.70;;;18.70;99.90;;;;;;5069306;28;20480;-60
2023/09/08 04:03:40;;;;;;;13.27;10.77;;;18.70;99.90;;;;;;5070892;28;20041;-58
2023/09/08 04:06:06;;;;;;;15.15;10.35;;;18.70;99.90;;;;;;5071325;28;20456;-58
2023/09/08 04:08:31;;;;;;;13.25;11.07;;;18.70;99.90;;;;;;5071160;28;20045;-59
2023/09/08 04:10:57;;;;;;;12.05;10.80;;;18.70;99.90;;;;;;5070623;28;20426;-59
2023/09/08 04:13:22;;;;;;;16.77;11.02;;;18.60;99.90;;;;;;5071098;28;20044;-61
2023/09/08 04:15:48;;;;;;;17.45;10.98;;;18.60;99.90;;;;;;5069917;28;20123;-57
2023/09/08 04:18:14;;;;;;;12.35;11.05;;;18.60;99.90;;;;;;5070705;28;20039;-59
2023/09/08 04:20:39;;;;;;;13.93;11.15;;;18.60;99.90;;;;;;5069763;28;20036;-60
2023/09/08 04:23:05;;;;;;;13.02;10.80;;;18.60;99.90;;;;;;5068135;28;20035;-57
2023/09/08 04:25:31;;;;;;;13.65;10.88;;;18.50;99.90;;;;;;5070699;28;20055;-58
2023/09/08 04:27:57;;;;;;;14.00;10.63;;;18.50;99.90;;;;;;5070977;28;20040;-57
2023/09/08 04:30:22;;;;;;;12.02;10.52;;;18.50;99.90;;;;;;5071278;28;20044;-56
2023/09/08 04:32:48;;;;;;;11.95;10.57;;;18.50;99.90;;;;;;5072837;28;20037;-59
2023/09/08 04:35:14;;;;;;;12.30;11.10;;;18.40;99.90;;;;;;5070682;28;20033;-60
2023/09/08 04:37:40;;;;;;;13.82;11.45;;;18.40;99.90;;;;;;5067047;28;20048;-61
2023/09/08 04:40:07;;;;;;;13.05;10.38;;;18.50;99.90;;;;;;5070479;28;20454;-57
2023/09/08 04:42:33;;;;;;;13.43;11.38;;;18.40;99.90;;;;;;5070145;28;20057;-57
2023/09/08 04:44:58;;;;;;;14.30;11.50;;;18.40;99.90;;;;;;5070390;28;20051;-58
2023/09/08 04:47:24;;;;;;;14.20;11.65;;;18.40;99.90;;;;;;5071023;28;20038;-58
2023/09/08 04:49:50;;;;;;;13.40;10.98;;;18.40;99.90;;;;;;5070515;28;20029;-62
2023/09/08 04:52:16;;;;;;;13.73;11.02;;;18.40;99.90;;;;;;5070317;28;20059;-58
2023/09/08 04:54:41;;;;;;;19.50;10.82;;;18.30;99.90;;;;;;5072190;28;20040;-58
2023/09/08 04:57:07;;;;;;;14.10;11.75;;;18.30;99.90;;;;;;5074542;28;20059;-59
2023/09/08 04:59:33;;;;;;;14.88;10.70;;;18.30;99.90;;;;;;5074311;28;20044;-59
2023/09/08 05:01:59;;;;;;;12.80;11.45;;;18.20;99.90;;;;;;5073303;28;20040;-59
2023/09/08 05:04:25;;;;;;;12.20;10.98;;;18.20;99.90;;;;;;5074219;28;20041;-59
2023/09/08 05:06:50;;;;;;;14.25;11.45;;;18.20;99.90;;;;;;5074611;28;20044;-58
2023/09/08 05:09:16;;;;;;;13.80;12.10;;;18.20;99.90;;;;;;5074207;28;20036;-58
2023/09/08 05:11:42;;;;;;;13.52;11.93;;;18.20;99.90;;;;;;5073774;28;20120;-59
2023/09/08 05:14:07;;;;;;;13.27;11.25;;;18.10;99.90;;;;;;5074446;28;20036;-59
2023/09/08 05:16:45;;;;;;;14.00;11.63;;;18.10;99.90;;;;;;5074410;28;20047;-59
2023/09/08 05:19:13;;;;;;;12.50;10.88;;;18.20;99.90;;;;;;5074434;28;20536;-60
2023/09/08 05:21:39;;;;;;;13.25;11.85;;;18.10;99.90;;;;;;5073321;28;20490;-59
2023/09/08 05:24:06;;;;;;;14.20;11.68;;;18.10;99.90;;;;;;5073500;28;20044;-60
2023/09/08 05:26:31;;;;;;;14.93;11.73;;;18.10;99.90;;;;;;5073966;28;20044;-62
2023/09/08 05:28:57;;;;;;;13.45;12.02;;;18.10;99.90;;;;;;5072783;28;20480;-59
2023/09/08 05:31:23;;;;;;;12.43;11.23;;;18.00;99.90;;;;;;5068342;28;20285;-60
2023/09/08 05:33:49;;;;;;;12.52;11.32;;;18.00;99.90;;;;;;5073301;28;20377;-61
2023/09/08 05:36:14;;;;;;;12.48;11.20;;;18.00;99.90;;;;;;5073173;28;20037;-61
2023/09/08 05:38:40;;;;;;;14.05;11.15;;;18.10;99.90;;;;;;5073329;28;20129;-60
2023/09/08 05:41:06;;;;;;;14.75;11.70;;;18.10;99.90;;;;;;5073114;28;20147;-57
2023/09/08 05:43:32;;;;;;;13.27;11.88;;;18.10;99.90;;;;;;5072546;28;20391;-60
2023/09/08 05:45:57;;;;;;;12.57;11.13;;;18.10;99.90;;;;;;5073547;28;20392;-60
2023/09/08 05:48:23;;;;;;;14.90;12.00;;;18.10;99.90;;;;;;5073852;28;20098;-59
2023/09/08 05:50:49;;;;;;;13.73;10.80;;;18.10;99.90;;;;;;5073476;28;20028;-60
2023/09/08 05:53:14;;;;;;;14.32;11.05;;;18.10;99.90;;;;;;5072672;28;20483;-59
2023/09/08 05:55:40;;;;;;;13.98;11.45;;;18.20;99.90;;;;;;5073397;28;20045;-58
2023/09/08 05:58:07;;;;;;;13.70;11.50;;;18.10;99.90;;;;;;5072430;28;20044;-58
2023/09/08 06:00:33;;;;;;;14.50;11.38;;;18.20;99.90;;;;;;5071709;28;20056;-61
2023/09/08 06:02:59;;;;;;;14.00;11.73;;;18.20;99.90;;;;;;5072487;28;20415;-59
2023/09/08 06:05:24;;;;;;;14.45;11.55;;;18.20;99.90;;;;;;5070977;28;20044;-57
2023/09/08 06:07:50;;;;;;;13.25;11.40;;;18.30;99.90;;;;;;5069836;28;20036;-58
2023/09/08 06:10:16;;;;;;;12.95;10.93;;;18.30;99.90;;;;;;5072352;28;20064;-60
2023/09/08 06:12:43;;;;;;;12.80;10.88;;;18.40;99.90;;;;;;5072672;28;20032;-60
2023/09/08 06:15:09;;;;;;;12.73;11.48;;;18.40;99.90;;;;;;5073341;28;20040;-58
2023/09/08 06:17:34;;;;;;;12.48;11.27;;;18.40;99.90;;;;;;5072994;28;20106;-59
2023/09/08 06:20:00;;;;;;;13.32;11.00;;;18.50;99.90;;;;;;5072682;28;20082;-58
2023/09/08 06:22:26;;;;;;;12.68;11.13;;;18.50;99.90;;;;;;5072971;28;20071;-59
2023/09/08 06:24:51;;;;;;;12.30;11.00;;;18.60;99.90;;;;;;5073057;28;20493;-60
2023/09/08 06:27:17;;;;;;;13.10;10.95;;;18.60;99.90;;;;;;5073043;28;20055;-58
2023/09/08 06:29:43;;;;;;;13.32;10.55;;;18.60;99.90;;;;;;5072879;28;20423;-57
2023/09/08 06:32:10;;;;;;;11.98;10.65;;;18.70;99.90;;;;;;5072808;28;20032;-59
2023/09/08 06:34:36;;;;;;;14.85;10.90;;;18.70;99.90;;;;;;5066629;28;20036;-58
2023/09/08 06:37:02;;;;;;;12.48;11.20;;;18.80;99.90;;;;;;5066704;28;20383;-59
2023/09/08 06:39:28;;;;;;;14.48;11.02;;;18.80;99.90;;;;;;5072137;28;20044;-59
2023/09/08 06:41:54;;;;;;;13.57;10.90;;;18.90;99.90;;;;;;5072238;28;20048;-59
2023/09/08 06:44:20;;;;;;;13.75;10.68;;;18.90;99.90;;;;;;5072435;28;20045;-61
2023/09/08 06:46:46;;;;;;;13.43;10.90;;;19.00;99.90;;;;;;5067619;28;20401;-59
2023/09/08 06:49:12;;;;;;;15.13;11.13;;;19.10;99.90;;;;;;5061824;28;20561;-60
2023/09/08 06:51:38;;;;;;;12.32;10.82;;;19.20;99.90;;;;;;5064216;28;20430;-60
2023/09/08 06:54:04;;;;;;;14.00;11.05;;;19.20;99.90;;;;;;5062505;28;20492;-59
2023/09/08 06:56:30;;;;;;;12.45;10.88;;;19.30;99.90;;;;;;5061711;28;20141;-58
2023/09/08 06:58:57;;;;;;;14.75;11.68;;;19.30;99.90;;;;;;5063444;28;20068;-58
2023/09/08 07:01:24;;;;;;;13.27;10.75;;;19.40;99.90;;;;;;5063928;28;20133;-59
2023/09/08 07:03:50;;;;;;;11.38;10.15;;;19.50;99.90;;;;;;5063949;28;20677;-61
2023/09/08 07:06:16;;;;;;;12.32;10.88;;;19.50;99.90;;;;;;5063110;28;20115;-58
2023/09/08 07:08:42;;;;;;;12.43;10.50;;;19.50;99.90;;;;;;5063263;28;20082;-59
2023/09/08 07:11:08;;;;;;;13.10;10.63;;;19.60;99.90;;;;;;5062474;28;20499;-59
2023/09/08 07:13:34;;;;;;;11.95;9.77;;;19.60;99.90;;;;;;5060327;28;20033;-58
2023/09/08 07:15:59;;;;;;;12.82;10.88;;;19.80;99.90;;;;;;5062115;28;20081;-59
2023/09/08 07:18:25;;;;;;;13.70;11.15;;;19.80;99.90;;;;;;5062779;28;20035;-59
2023/09/08 07:20:51;;;;;;;12.48;11.18;;;19.90;99.90;;;;;;5064629;28;20024;-60
2023/09/08 07:23:20;;;;;;;12.27;10.23;;;19.90;99.90;;;;;;5062566;28;20048;-57
2023/09/08 07:25:49;;;;;;;14.00;10.90;;;20.00;99.90;;;;;;5060830;28;20043;-59
2023/09/08 07:28:16;;;;;;;13.15;11.25;;;20.00;99.90;;;;;;5063695;28;20041;-58
2023/09/08 07:30:42;;;;;;;13.05;10.25;;;20.10;99.90;;;;;;5063791;28;20199;-60
2023/09/08 07:33:08;;;;;;;13.45;10.68;;;20.20;99.90;;;;;;5062087;28;20032;-58
2023/09/08 07:35:37;;;;;;;11.43;10.27;;;20.20;99.90;;;;;;5059818;28;20032;-59
2023/09/08 07:38:03;;;;;;;12.13;10.05;;;20.30;99.90;;;;;;5062333;28;20496;-58
2023/09/08 07:40:28;;;;;;;15.75;9.80;;;20.40;99.90;;;;;;5058999;28;20053;-60
2023/09/08 07:42:54;;;;;;;13.02;10.70;;;20.50;99.90;;;;;;5061365;28;20556;-59
2023/09/08 07:45:20;;;;;;;12.00;9.38;;;20.60;99.90;;;;;;5060559;28;20055;-59
2023/09/08 07:47:45;;;;;;;12.52;10.73;;;20.60;99.90;;;;;;5043619;28;20044;-59
2023/09/08 07:50:23;;;;;;;11.93;9.75;;;20.70;99.90;;;;;;5059441;28;20041;-60
2023/09/08 07:52:50;;;;;;;13.32;10.65;;;20.80;99.90;;;;;;5061619;28;20112;-60
2023/09/08 07:55:16;;;;;;;12.70;9.85;;;20.90;99.90;;;;;;5062703;28;20035;-59
2023/09/08 07:57:44;;;;;;;11.60;10.38;;;20.90;99.90;;;;;;5063106;28;20041;-62
2023/09/08 08:00:13;;;;;;;11.88;10.18;;;21.00;99.90;;;;;;5064323;28;20187;-58
2023/09/08 08:02:50;;;;;;;11.27;9.73;;;21.10;99.90;;;;;;5062410;28;20537;-59
2023/09/08 08:05:17;;;;;;;14.65;9.68;;;21.10;99.90;;;;;;5060137;28;20068;-60
2023/09/08 08:07:44;;;;;;;12.32;9.20;;;21.30;99.90;;;;;;5059282;28;20041;-61
2023/09/08 08:10:10;;;;;;;12.43;9.10;;;21.30;99.90;;;;;;5061282;28;20045;-59
2023/09/08 08:12:37;;;;;;;11.40;9.60;;;21.40;99.90;;;;;;5061580;28;20032;-57
2023/09/08 08:15:04;;;;;;;12.98;9.13;;;21.50;99.90;;;;;;5060006;28;20037;-58
2023/09/08 08:17:30;;;;;;;13.88;9.35;;;21.60;99.90;;;;;;5059684;28;20044;-59
2023/09/08 08:20:06;;;;;;;11.13;8.68;;;21.70;99.90;;;;;;5061193;28;20045;-60
2023/09/08 08:22:32;;;;;;;10.77;8.65;;;21.80;99.90;;;;;;5062102;28;20048;-59
2023/09/08 08:24:57;;;;;;;11.23;8.43;;;21.80;99.90;;;;;;5061336;28;20390;-59
2023/09/08 08:27:23;;;;;;;13.95;8.98;;;21.90;99.90;;;;;;5058743;28;20032;-59
2023/09/08 08:29:49;;;;;;;13.38;9.05;;;22.00;99.90;;;;;;5061002;28;20054;-61
2023/09/08 08:32:14;;;;;;;11.02;8.80;;;22.10;99.90;;;;;;5061609;28;20037;-60
2023/09/08 08:34:40;;;;;;;10.98;8.35;;;22.20;99.90;;;;;;5059860;28;20492;-58
2023/09/08 08:37:05;;;;;;;10.35;8.07;;;22.30;99.90;;;;;;5058996;28;20041;-61
2023/09/08 08:39:31;;;;;;;11.95;8.77;;;22.30;99.90;;;;;;5059395;28;20064;-60
2023/09/08 08:41:57;;;;;;;10.95;8.40;;;22.40;99.90;;;;;;5061441;28;20446;-59
2023/09/08 08:44:24;;;;;;;11.50;7.95;;;22.50;99.90;;;;;;5060650;28;20036;-59
2023/09/08 08:46:50;;;;;;;12.32;8.13;;;22.60;99.90;;;;;;5059813;28;20037;-58
2023/09/08 08:49:18;;;;;;;9.77;7.25;;;22.60;99.90;;;;;;5059790;28;20503;-61
2023/09/08 08:51:45;;;;;;;10.68;7.82;;;22.70;99.90;;;;;;5058858;28;20480;-58
2023/09/08 08:54:13;;;;;;;11.88;7.80;;;22.80;99.90;;;;;;5060187;28;20037;-59
2023/09/08 08:56:40;;;;;;;10.68;7.85;;;23.00;99.90;;;;;;5060609;28;20040;-59
2023/09/08 08:59:06;;;;;;;12.95;8.25;;;23.10;99.90;;;;;;5061913;28;20044;-58
2023/09/08 09:01:32;;;;;;;11.13;7.78;;;23.20;99.90;;;;;;5059673;28;20072;-59
2023/09/08 09:03:58;;;;;;;9.93;7.78;;;23.40;99.90;;;;;;5061445;28;20119;-58
2023/09/08 09:06:24;;;;;;;10.73;7.43;;;23.50;99.90;;;;;;5067905;28;20127;-60
2023/09/08 09:08:50;;;;;;;11.80;7.32;;;23.60;99.90;;;;;;5065462;28;20032;-59
2023/09/08 09:11:16;;;;;;;11.00;7.57;;;23.80;99.90;;;;;;5065941;28;20036;-60
2023/09/08 09:13:41;;;;;;;10.90;8.25;;;24.00;99.90;;;;;;5067461;28;20037;-58
2023/09/08 09:16:10;;;;;;;13.05;8.10;;;24.10;99.90;;;;;;5070212;28;20439;-58
2023/09/08 09:18:58;;;;;;;11.23;7.55;;;24.20;99.90;;;;;;5069132;28;20499;-59
2023/09/08 09:21:40;;;;;;;11.05;7.35;;;24.40;99.90;;;;;;5070794;28;20389;-59
2023/09/08 09:24:06;;;;;;;9.70;6.80;;;24.50;99.90;;;;;;5067254;28;20028;-58
2023/09/08 09:26:32;;;;;;;9.68;7.38;;;24.60;99.90;;;;;;5068763;28;20068;-58
2023/09/08 09:28:59;;;;;;;10.70;7.43;;;24.70;99.90;;;;;;5066075;28;20071;-59
2023/09/08 09:31:29;;;;;;;11.98;7.13;;;24.90;99.90;;;;;;5067984;28;20075;-59
2023/09/08 09:34:05;;;;;;;10.52;7.05;;;25.00;99.90;;;;;;5065283;28;20091;-58
2023/09/08 09:36:31;;;;;;;12.98;7.70;;;25.10;99.90;;;;;;5100102;28;20115;-58
2023/09/08 09:39:01;;;;;;;11.38;7.28;;;25.20;99.90;;;;;;5069665;28;20112;-58
2023/09/08 09:41:30;;;;;;;10.70;6.78;;;25.30;99.90;;;;;;5072765;28;20050;-58
2023/09/08 09:43:57;;;;;;;11.02;6.97;;;25.40;99.90;;;;;;5073866;28;20048;-59
2023/09/08 09:46:22;;;;;;;10.32;7.82;;;25.50;99.90;;;;;;5074252;28;20586;-58
2023/09/08 09:48:56;;;;;;;10.52;7.57;;;25.60;99.90;;;;;;5074676;28;20115;-58
2023/09/08 09:51:22;;;;;;;10.13;6.93;;;25.70;99.90;;;;;;5073049;28;20491;-59
2023/09/08 09:53:50;;;;;;;10.82;6.88;;;25.80;99.90;;;;;;5074071;28;20056;-59
2023/09/08 09:56:17;;;;;;;11.30;7.10;;;25.80;99.90;;;;;;5073355;28;20050;-59
2023/09/08 09:58:44;;;;;;;10.52;5.95;;;25.90;99.90;;;;;;5072113;28;20040;-59
2023/09/08 10:01:11;;;;;;;9.00;6.03;;;26.00;99.90;;;;;;5075722;28;20075;-57
2023/09/08 10:03:40;;;;;;;11.80;7.13;;;26.10;99.90;;;;;;5072952;28;20094;-59
2023/09/08 10:06:06;;;;;;;10.43;7.22;;;26.20;99.90;;;;;;5073225;28;20046;-59
2023/09/08 10:08:38;;;;;;;8.50;6.80;;;26.30;99.90;;;;;;5071680;28;20037;-58
2023/09/08 10:11:07;;;;;;;8.70;6.78;;;26.30;99.90;;;;;;5072014;28;20076;-59
2023/09/08 10:13:40;;;;;;;9.30;7.38;;;26.30;99.90;;;;;;5054785;28;20036;-60
2023/09/08 10:16:07;;;;;;;10.32;6.20;;;26.30;99.90;;;;;;5073983;28;20044;-59
2023/09/08 10:18:34;;;;;;;10.90;6.78;;;26.30;99.90;;;;;;5073911;28;20434;-59
2023/09/08 10:21:04;;;;;;;8.68;7.20;;;26.40;99.90;;;;;;5074347;28;20038;-59
2023/09/08 10:23:34;;;;;;;11.63;7.07;;;26.50;99.90;;;;;;5072303;28;20074;-58
2023/09/08 10:26:04;;;;;;;9.95;6.95;;;26.50;99.90;;;;;;5071542;28;20044;-58
2023/09/08 10:28:32;;;;;;;10.52;7.63;;;26.60;99.90;;;;;;5072695;28;20036;-59
2023/09/08 10:30:59;;;;;;;10.63;5.88;;;26.60;99.90;;;;;;5071746;28;20072;-59
2023/09/08 10:33:26;;;;;;;9.23;6.00;;;26.80;99.90;;;;;;5072736;28;20040;-59
2023/09/08 10:35:52;;;;;;;10.32;6.00;;;26.80;99.90;;;;;;5072580;28;20036;-60
2023/09/08 10:38:23;;;;;;;8.30;5.78;;;26.90;99.90;;;;;;5069453;28;20048;-59
2023/09/08 10:40:49;;;;;;;9.30;5.43;;;27.00;99.90;;;;;;5072917;28;20534;-59
2023/09/08 10:43:15;;;;;;;7.75;5.50;;;27.00;99.90;;;;;;5062797;28;20479;-60
2023/09/08 10:45:41;;;;;;;8.43;5.35;;;27.10;99.90;;;;;;5067822;28;20102;-58
2023/09/08 10:48:07;;;;;;;9.93;5.53;;;27.20;99.90;;;;;;5070692;28;20476;-60
2023/09/08 10:50:36;;;;;;;10.07;5.55;;;27.30;99.90;;;;;;5069015;28;20037;-59
2023/09/08 10:53:16;;;;;;;7.57;5.25;;;27.50;99.90;;;;;;5068327;28;20041;-59
2023/09/08 10:55:51;;;;;;;8.75;5.55;;;27.60;99.90;;;;;;5069701;28;20040;-60
2023/09/08 10:58:19;;;;;;;9.30;5.18;;;27.70;99.90;;;;;;5068698;28;20528;-59
2023/09/08 11:00:54;;;;;;;7.20;5.40;;;27.80;99.90;;;;;;5070843;28;20032;-60
2023/09/08 11:03:53;;;;;;;6.70;5.10;;;28.00;99.90;;;;;;5069389;28;20043;-59
2023/09/08 11:06:23;;;;;;;8.27;5.65;;;28.10;99.90;;;;;;5038053;28;20051;-58
2023/09/08 11:08:52;;;;;;;7.97;5.03;;;28.20;99.90;;;;;;5071964;28;20032;-58
2023/09/08 11:11:18;;;;;;;7.70;5.32;;;28.30;99.90;;;;;;5071508;28;20111;-60
2023/09/08 11:13:47;;;;;;;10.65;5.30;;;28.50;99.90;;;;;;5070783;28;20051;-60
2023/09/08 11:16:14;;;;;;;8.95;4.78;;;28.60;99.90;;;;;;5070991;28;20377;-61
2023/09/08 11:18:42;;;;;;;10.05;5.35;;;28.60;99.90;;;;;;5071603;28;20045;-59
2023/09/08 11:21:09;;;;;;;10.27;4.85;;;28.70;99.90;;;;;;5071957;28;20044;-60
2023/09/08 11:23:35;;;;;;;10.60;4.90;;;28.80;99.90;;;;;;5071920;28;20029;-59
2023/09/08 11:26:01;;;;;;;8.73;5.05;;;29.00;99.90;;;;;;5071003;28;20032;-58
2023/09/08 11:28:28;;;;;;;9.55;5.22;;;29.20;99.90;;;;;;5072203;28;20041;-61
2023/09/08 11:30:55;;;;;;;10.98;5.18;;;29.30;99.90;;;;;;5072523;28;20041;-60
2023/09/08 11:33:26;;;;;;;7.78;5.35;;;29.40;99.90;;;;;;5072110;28;20063;-60
2023/09/08 11:35:53;;;;;;;7.03;5.10;;;29.40;99.90;;;;;;5071936;28;20059;-60
2023/09/08 11:38:26;;;;;;;7.50;4.85;;;29.50;99.90;;;;;;5071799;28;20068;-59
2023/09/08 11:40:57;;;;;;;9.77;5.05;;;29.60;99.90;;;;;;5071871;28;20056;-59
2023/09/08 11:43:23;;;;;;;8.90;4.95;;;29.80;99.90;;;;;;5069682;28;20052;-59
2023/09/08 11:45:49;;;;;;;8.27;5.38;;;29.90;99.90;;;;;;5071730;28;20044;-59
2023/09/08 11:48:15;;;;;;;7.38;4.95;;;29.90;99.90;;;;;;5072054;28;20043;-59
2023/09/08 11:50:42;;;;;;;8.30;5.43;;;30.00;99.90;;;;;;5071873;28;20036;-60
2023/09/08 11:53:08;;;;;;;7.88;5.07;;;30.00;99.50;;;;;;5071396;28;20486;-59
2023/09/08 11:55:36;;;;;;;7.50;5.03;;;30.10;99.50;;;;;;5071827;28;20369;-58
2023/09/08 11:58:03;;;;;;;8.05;5.00;;;30.20;99.60;;;;;;5071833;28;20037;-60
2023/09/08 12:00:29;;;;;;;7.15;5.10;;;30.30;99.20;;;;;;5072020;28;20067;-59
2023/09/08 12:03:08;;;;;;;9.15;4.85;;;30.30;99.10;;;;;;5071630;28;21446;-60
2023/09/08 12:05:34;;;;;;;8.32;4.68;;;30.50;98.70;;;;;;5070292;28;20063;-59
2023/09/08 12:08:04;;;;;;;6.97;4.85;;;30.50;98.90;;;;;;5070079;28;20032;-60
2023/09/08 12:10:37;;;;;;;8.65;5.25;;;30.70;99.10;;;;;;5071053;28;20033;-60
2023/09/08 12:13:03;;;;;;;7.70;5.28;;;30.80;99.00;;;;;;5070170;28;20040;-60
2023/09/08 12:15:39;;;;;;;9.10;5.20;;;30.90;99.10;;;;;;5071690;28;20059;-60
2023/09/08 12:18:07;;;;;;;8.48;4.93;;;31.00;99.00;;;;;;5071297;28;20078;-60
2023/09/08 12:20:34;;;;;;;8.18;4.97;;;31.00;98.50;;;;;;5071626;28;20103;-58
2023/09/08 12:23:02;;;;;;;7.40;4.70;;;31.10;97.90;;;;;;5071121;28;20039;-60
2023/09/08 12:25:28;;;;;;;10.00;5.30;;;31.20;98.10;;;;;;5070394;28;20041;-60
2023/09/08 12:27:54;;;;;;;9.13;5.78;;;31.30;98.30;;;;;;5070946;28;20076;-60
2023/09/08 12:30:24;;;;;;;10.90;5.18;;;31.40;98.10;;;;;;5071276;28;20041;-59
2023/09/08 12:32:50;;;;;;;9.27;5.97;;;31.50;98.00;;;;;;5071292;28;20032;-59
2023/09/08 12:35:24;;;;;;;9.20;4.80;;;31.70;97.70;;;;;;5071368;28;20047;-60